Meshima, Japan

7:41 PM JST on February 12, 2016 (GMT +0900)
Fukue | | Change Station
CLOSE
Current Station
Airport
Location: Fukue,
Elevation: 262 ft
Nearby Weather Stations

Elev 262 ft 32.67 °N, 128.83 °E | Updated 1 hour ago

Light Rain Showers
Light Showers Rain
61 °F
Feels Like 61 °F
N
16
Wind Variable Wind from SSE

Today
High -- | Low -- °F
--% Chance of Precip.
Yesterday
High -- | Low -- °F
Precip. -- in
Pressure 30.06 in
Visibility 5.6 miles
Clouds Few 1000 ft
Scattered Clouds 1500 ft
Mostly Cloudy 2500 ft
Dew Point 57 °F
Humidity 88%
Rainfall 0.00 in
Snow Depth Not available.
7:12 AM 6:09 PM
Waxing Crescent, 19% visible
SPECI RJFE 120917Z 16014KT 9000 -SHRA FEW010 SCT015 BKN025 16/14 Q1018 RMK 1CU010 3CU015 5CU025 A3008
Pressure 30.06 in
Visibility 5.6 miles
Clouds Few 1000 ft
Scattered Clouds 1500 ft
Mostly Cloudy 2500 ft
Dew Point 57 °F
Humidity 88%
Rainfall 0.00 in
Snow Depth Not available.
7:12 AM 6:09 PM
Waxing Crescent, 19% visible
SPECI RJFE 120917Z 16014KT 9000 -SHRA FEW010 SCT015 BKN025 16/14 Q1018 RMK 1CU010 3CU015 5CU025 A3008

10-Day Weather Forecast

No radar image for this location.
×

Almanac

Astronomy

Feb. 12, 2016 Rise Set
Actual Time
Civil Twilight
Nautical Twilight
Astronomical Twilight
Moon
Length of Visible Light
Length of Day
Tomorrow will be .
, % of the Moon is Illuminated

Today's Extremes

Country Highs Country Lows

Community

WunderPhotos

Upload Photos

1,892,289 photos uploaded!

WunderBlog® & News

Nearby

Air Quality

  Air Quality AQ Index Pollutant
Not available.

Snow Depth

Station Depth Elevation

Earthquake Activity

City Distance Mag. Time & Date
Minimum magnitude displayed is 2.5.

Coastal Water Temperatures

Place Temperature

Stations

Nearby Weather Stations

Station Location Temp. Windchill Dew Point Humidity Wind Precip. Elev Updated Type